Terminal Aerodrome Forecast
Issued by NWS

Home | Current Version | Previous Version | Text Only | Print | Product List | Glossary On
Versions: 1 2 3 4 5 6 7 8 9 10 11 12 13 14 15
000
FTUS46 KSGX 171100
TAFSNA
TAF
KSNA 171126Z 1712/1812 17005KT P6SM OVC015
     FM171800 18007KT P6SM SCT018 SCT200
     FM171900 20010KT P6SM SCT018 SCT200
     FM180400 VRB04KT P6SM OVC018=

USA.gov is the U.S. government's official web portal to all federal, state and local government web resources and services.